createdAt,value
2022-08-26T00:00:16.524Z,0.00
2022-08-26T00:05:21.573Z,0.00
2022-08-26T00:10:27.651Z,0.00
2022-08-26T00:15:17.071Z,0.00
2022-08-26T00:20:22.805Z,0.00
2022-08-26T00:25:28.452Z,0.00
2022-08-26T00:30:17.526Z,0.00
2022-08-26T00:35:23.612Z,0.00
2022-08-26T00:40:29.695Z,0.00
2022-08-26T00:45:18.685Z,0.00
2022-08-26T00:50:24.760Z,0.00
2022-08-26T00:55:37.742Z,0.00
2022-08-26T01:00:19.838Z,0.00
2022-08-26T01:05:26.041Z,0.00
2022-08-26T01:10:32.108Z,0.00
2022-08-26T01:15:21.078Z,0.00
2022-08-26T01:20:27.213Z,0.00
2022-08-26T01:25:15.891Z,0.00
2022-08-26T01:30:21.980Z,0.00
2022-08-26T01:35:28.035Z,0.00
2022-08-26T01:40:17.180Z,0.00
2022-08-26T01:45:23.127Z,0.00
2022-08-26T01:50:30.346Z,0.00
2022-08-26T01:55:32.029Z,0.00
2022-08-26T02:00:24.356Z,0.00
2022-08-26T02:05:29.501Z,0.00
2022-08-26T02:10:18.481Z,0.00
2022-08-26T02:15:24.547Z,0.00
2022-08-26T02:20:30.670Z,0.00
2022-08-26T02:25:19.647Z,0.00
2022-08-26T02:30:26.013Z,0.00
2022-08-26T02:35:31.804Z,0.00
2022-08-26T02:40:20.965Z,0.00
2022-08-26T02:45:26.902Z,0.00
2022-08-26T02:50:15.926Z,0.00
2022-08-26T02:55:22.060Z,0.00
2022-08-26T03:00:28.307Z,0.00
2022-08-26T03:05:17.224Z,0.00
2022-08-26T03:10:23.318Z,0.00
2022-08-26T03:15:29.344Z,0.00
2022-08-26T03:20:18.409Z,0.00
2022-08-26T03:25:24.777Z,0.00
2022-08-26T03:30:30.410Z,0.00
2022-08-26T03:35:19.431Z,0.00
2022-08-26T03:40:25.572Z,0.00
2022-08-26T03:45:31.542Z,0.00
2022-08-26T03:50:22.595Z,0.00
2022-08-26T03:55:26.612Z,0.00
2022-08-26T04:00:32.992Z,0.00
2022-08-26T04:05:20.861Z,0.00
2022-08-26T04:10:28.460Z,0.00
2022-08-26T04:15:16.027Z,0.20
2022-08-26T04:20:22.042Z,1.05
2022-08-26T04:25:27.758Z,2.43
2022-08-26T04:30:16.850Z,4.32
2022-08-26T04:35:25.769Z,6.32
2022-08-26T04:40:28.947Z,8.83
2022-08-26T04:45:17.949Z,11.39
2022-08-26T04:50:24.073Z,14.44
2022-08-26T04:55:38.470Z,18.36
2022-08-26T05:00:19.128Z,23.41
2022-08-26T05:05:25.403Z,27.97
2022-08-26T05:10:31.336Z,32.83
2022-08-26T05:15:20.343Z,37.57
2022-08-26T05:20:26.453Z,42.40
2022-08-26T05:25:32.156Z,47.72
2022-08-26T05:30:21.215Z,53.42
2022-08-26T05:35:27.256Z,60.14
2022-08-26T05:40:16.387Z,66.43
2022-08-26T05:45:22.359Z,72.20
2022-08-26T05:50:28.526Z,78.90
2022-08-26T05:55:17.502Z,85.99
2022-08-26T06:00:23.633Z,96.67
2022-08-26T06:05:29.177Z,113.42
2022-08-26T06:10:33.610Z,132.08
2022-08-26T06:12:00.227Z,128.90
2022-08-26T06:15:24.132Z,156.00
2022-08-26T06:20:30.182Z,169.09
2022-08-26T06:21:25.209Z,164.88
2022-08-26T06:25:18.730Z,201.15
2022-08-26T06:30:24.918Z,219.16
2022-08-26T06:35:31.360Z,158.99
2022-08-26T06:40:20.231Z,156.57
2022-08-26T06:45:25.931Z,154.98
2022-08-26T06:50:32.015Z,166.38
2022-08-26T06:55:21.011Z,242.94
2022-08-26T07:00:27.104Z,222.50
2022-08-26T07:05:16.246Z,303.72
2022-08-26T07:10:22.479Z,298.73
2022-08-26T07:15:31.399Z,310.03
2022-08-26T07:20:17.398Z,325.09
2022-08-26T07:25:23.185Z,329.36
2022-08-26T07:30:29.207Z,336.14
2022-08-26T07:35:18.316Z,355.68
2022-08-26T07:40:24.406Z,362.65
2022-08-26T07:45:30.379Z,373.44
2022-08-26T07:50:19.420Z,397.94
2022-08-26T07:55:25.518Z,422.72
2022-08-26T08:00:31.575Z,450.93
2022-08-26T08:05:19.725Z,467.34
2022-08-26T08:10:25.953Z,491.81
2022-08-26T08:15:31.798Z,533.36
2022-08-26T08:20:21.003Z,532.90
2022-08-26T08:25:26.815Z,546.32
2022-08-26T08:30:20.807Z,567.80
2022-08-26T08:35:21.951Z,549.37
2022-08-26T08:40:28.081Z,569.66
2022-08-26T08:45:17.081Z,631.88
2022-08-26T08:50:23.121Z,632.70
2022-08-26T08:55:29.173Z,649.36
2022-08-26T09:00:18.254Z,667.72
2022-08-26T09:05:24.407Z,378.36
2022-08-26T09:10:30.410Z,544.59
2022-08-26T09:15:19.400Z,682.40
2022-08-26T09:20:25.576Z,725.75
2022-08-26T09:25:31.421Z,776.57
2022-08-26T09:30:20.474Z,742.91
2022-08-26T09:35:26.535Z,682.22
2022-08-26T09:40:15.709Z,747.68
2022-08-26T09:45:21.648Z,784.61
2022-08-26T09:50:28.888Z,651.95
2022-08-26T09:55:16.806Z,422.33
2022-08-26T10:00:22.930Z,357.63
2022-08-26T10:05:29.840Z,450.58
2022-08-26T10:10:18.561Z,638.05
2022-08-26T10:15:24.793Z,396.24
2022-08-26T10:20:30.725Z,303.98
2022-08-26T10:25:19.716Z,495.37
2022-08-26T10:30:25.799Z,544.26
2022-08-26T10:40:20.986Z,137.02
2022-08-26T10:45:26.938Z,134.93
2022-08-26T10:50:17.974Z,130.96
2022-08-26T10:55:22.071Z,137.04
2022-08-26T11:00:28.118Z,152.58
2022-08-26T11:05:17.306Z,173.65
2022-08-26T11:10:23.378Z,206.87
2022-08-26T11:15:29.582Z,248.28
2022-08-26T11:20:18.466Z,286.45
2022-08-26T11:25:29.131Z,320.56
2022-08-26T11:30:30.172Z,338.18
2022-08-26T11:35:19.202Z,370.06
2022-08-26T11:40:25.349Z,331.54
2022-08-26T11:45:31.377Z,321.04
2022-08-26T11:50:20.377Z,308.31
2022-08-26T11:55:26.425Z,373.03
2022-08-26T12:00:33.785Z,255.47
2022-08-26T12:05:20.596Z,230.97
2022-08-26T12:10:29.399Z,231.62
2022-08-26T12:15:15.723Z,247.85
2022-08-26T12:20:21.834Z,277.84
2022-08-26T12:25:27.755Z,276.76
2022-08-26T12:30:18.041Z,252.75
2022-08-26T12:35:22.909Z,213.81
2022-08-26T12:40:29.051Z,186.82
2022-08-26T12:45:17.960Z,174.74
2022-08-26T12:50:24.031Z,170.18
2022-08-26T12:55:30.092Z,168.93
2022-08-26T13:00:19.147Z,166.66
2022-08-26T13:05:25.284Z,153.68
2022-08-26T13:10:31.610Z,114.34
2022-08-26T13:15:20.367Z,114.50
2022-08-26T13:20:26.476Z,139.01
2022-08-26T13:25:32.305Z,156.09
2022-08-26T13:30:22.247Z,158.33
2022-08-26T13:35:27.399Z,154.93
2022-08-26T13:40:16.632Z,142.40
2022-08-26T13:45:22.485Z,155.88
2022-08-26T13:50:28.588Z,170.19
2022-08-26T13:55:17.600Z,174.78
2022-08-26T14:00:23.846Z,181.23
2022-08-26T14:05:29.142Z,173.65
2022-08-26T14:10:18.162Z,175.49
2022-08-26T14:15:24.233Z,175.51
2022-08-26T14:20:30.443Z,150.23
2022-08-26T14:25:18.894Z,132.05
2022-08-26T14:30:24.981Z,121.38
2022-08-26T14:35:31.041Z,123.36
2022-08-26T14:40:20.230Z,122.91
2022-08-26T14:45:26.132Z,122.23
2022-08-26T14:50:32.216Z,120.29
2022-08-26T14:55:21.246Z,119.92
2022-08-26T15:00:27.317Z,120.31
2022-08-26T15:05:15.436Z,128.61
2022-08-26T15:10:21.505Z,123.48
2022-08-26T15:15:27.537Z,115.64
2022-08-26T15:20:16.619Z,110.02
2022-08-26T15:25:23.387Z,105.18
2022-08-26T15:30:29.391Z,100.86
2022-08-26T15:35:18.457Z,98.60
2022-08-26T15:40:24.622Z,96.51
2022-08-26T15:45:30.575Z,94.95
2022-08-26T15:50:19.639Z,93.67
2022-08-26T15:55:25.732Z,93.18
2022-08-26T16:00:31.756Z,92.66
2022-08-26T16:05:19.897Z,91.52
2022-08-26T16:10:25.898Z,90.02
2022-08-26T16:15:32.022Z,87.99
2022-08-26T16:20:20.978Z,84.67
2022-08-26T16:25:27.146Z,78.13
2022-08-26T16:30:16.148Z,65.41
2022-08-26T16:35:22.207Z,54.90
2022-08-26T16:40:28.895Z,48.36
2022-08-26T16:45:17.305Z,42.22
2022-08-26T16:50:23.392Z,38.43
2022-08-26T16:55:29.458Z,36.06
2022-08-26T17:00:18.503Z,35.38
2022-08-26T17:05:23.649Z,34.31
2022-08-26T17:10:29.727Z,31.74
2022-08-26T17:15:19.019Z,28.51
2022-08-26T17:20:24.773Z,24.52
2022-08-26T17:25:30.653Z,21.33
2022-08-26T17:30:19.539Z,18.88
2022-08-26T17:35:25.622Z,16.15
2022-08-26T17:40:31.858Z,13.93
2022-08-26T17:45:25.862Z,11.03
2022-08-26T17:50:26.783Z,6.40
2022-08-26T17:55:15.834Z,3.33
2022-08-26T18:00:21.899Z,2.44
2022-08-26T18:05:28.260Z,0.81
2022-08-26T18:10:17.276Z,0.00
2022-08-26T18:15:23.741Z,0.00
2022-08-26T18:20:29.394Z,0.00
2022-08-26T18:25:18.175Z,0.00
2022-08-26T18:30:24.377Z,0.00
2022-08-26T18:35:30.297Z,0.00
2022-08-26T18:40:22.244Z,0.00
2022-08-26T18:45:25.393Z,0.00
2022-08-26T18:50:31.434Z,0.00
2022-08-26T18:55:20.481Z,0.00
2022-08-26T19:00:26.531Z,0.00
2022-08-26T19:05:31.679Z,0.00
2022-08-26T19:10:20.726Z,0.00
2022-08-26T19:15:27.087Z,0.00
2022-08-26T19:20:15.874Z,0.00
2022-08-26T19:25:21.639Z,0.00
2022-08-26T19:30:28.001Z,0.00
2022-08-26T19:35:16.728Z,0.00
2022-08-26T19:40:22.837Z,0.00
2022-08-26T19:45:28.897Z,0.00
2022-08-26T19:50:17.917Z,0.00
2022-08-26T19:55:23.970Z,0.00
2022-08-26T20:00:30.011Z,0.00
2022-08-26T20:05:19.143Z,0.00
2022-08-26T20:10:25.208Z,0.00
2022-08-26T20:15:31.425Z,0.00
2022-08-26T20:20:29.717Z,0.00
2022-08-26T20:25:26.044Z,0.00
2022-08-26T20:30:32.426Z,0.00
2022-08-26T20:35:21.153Z,0.00
2022-08-26T20:40:27.362Z,0.00
2022-08-26T20:45:16.253Z,0.00
2022-08-26T20:50:22.329Z,0.00
2022-08-26T20:55:28.389Z,0.00
2022-08-26T21:00:17.476Z,0.00
2022-08-26T21:05:22.580Z,0.00
2022-08-26T21:10:28.630Z,0.00
2022-08-26T21:15:17.671Z,0.00
2022-08-26T21:20:23.738Z,0.00
2022-08-26T21:25:30.384Z,0.00
2022-08-26T21:30:19.398Z,0.00
2022-08-26T21:35:25.676Z,0.00
2022-08-26T21:40:31.645Z,0.00
2022-08-26T21:45:20.596Z,0.00
2022-08-26T21:50:26.669Z,0.00
2022-08-26T21:55:32.760Z,0.00
2022-08-26T22:00:21.789Z,0.00
2022-08-26T22:05:27.065Z,0.00
2022-08-26T22:10:16.027Z,0.00
2022-08-26T22:15:22.082Z,0.00
2022-08-26T22:20:28.292Z,0.00
2022-08-26T22:25:16.925Z,0.00
2022-08-26T22:30:23.007Z,0.00
2022-08-26T22:35:29.750Z,0.00
2022-08-26T22:40:18.122Z,0.00
2022-08-26T22:45:24.165Z,0.00
2022-08-26T22:50:30.253Z,0.00
2022-08-26T22:55:19.242Z,0.00
2022-08-26T23:00:31.971Z,0.00
2022-08-26T23:05:30.545Z,0.00
2022-08-26T23:10:19.562Z,0.00
2022-08-26T23:15:25.645Z,0.00
2022-08-26T23:20:32.017Z,0.00
2022-08-26T23:25:21.353Z,0.00
2022-08-26T23:30:27.424Z,0.00
2022-08-26T23:35:17.395Z,0.00
2022-08-26T23:40:22.747Z,0.00
2022-08-26T23:45:28.638Z,0.00
2022-08-26T23:50:17.603Z,0.00
2022-08-26T23:55:23.714Z,0.00
